createdAt,value
2018-09-15T00:01:29.481Z,18.77
2018-09-15T00:03:59.248Z,18.73
2018-09-15T00:06:30.429Z,18.74
2018-09-15T00:08:59.945Z,18.70
2018-09-15T00:11:29.261Z,18.64
2018-09-15T00:13:59.018Z,18.63
2018-09-15T00:16:29.804Z,18.49
2018-09-15T00:18:59.361Z,18.50
2018-09-15T00:21:28.745Z,18.46
2018-09-15T00:23:58.167Z,18.44
2018-09-15T00:26:28.981Z,18.37
2018-09-15T00:29:01.010Z,18.32
2018-09-15T00:31:30.610Z,17.96
2018-09-15T00:34:02.648Z,18.27
2018-09-15T00:36:33.106Z,18.21
2018-09-15T00:39:03.129Z,18.11
2018-09-15T00:41:32.477Z,18.08
2018-09-15T00:44:01.934Z,18.08
2018-09-15T00:46:31.917Z,18.06
2018-09-15T00:49:01.905Z,18.06
2018-09-15T00:51:31.294Z,17.98
2018-09-15T00:54:01.122Z,17.92
2018-09-15T00:56:30.447Z,17.87
2018-09-15T00:59:00.379Z,17.86
2018-09-15T01:01:33.103Z,17.85
2018-09-15T01:04:04.015Z,17.86
2018-09-15T01:06:37.558Z,17.78
2018-09-15T01:09:09.163Z,17.72
2018-09-15T01:11:40.599Z,17.74
2018-09-15T01:14:09.993Z,17.78
2018-09-15T01:16:39.934Z,17.77
2018-09-15T01:19:09.724Z,17.77
2018-09-15T01:21:39.149Z,17.78
2018-09-15T01:24:09.164Z,17.78
2018-09-15T01:26:38.660Z,17.73
2018-09-15T01:29:08.275Z,17.65
2018-09-15T01:31:41.719Z,17.61
2018-09-15T01:34:11.446Z,17.62
2018-09-15T01:36:40.854Z,17.43
2018-09-15T01:39:11.828Z,17.43
2018-09-15T01:41:41.404Z,17.41
2018-09-15T01:44:11.340Z,17.34
2018-09-15T01:46:41.704Z,17.28
2018-09-15T01:49:11.051Z,17.35
2018-09-15T01:51:41.332Z,17.38
2018-09-15T01:54:12.170Z,17.22
2018-09-15T01:56:41.855Z,17.06
2018-09-15T01:59:12.035Z,16.93
2018-09-15T02:01:41.773Z,16.90
2018-09-15T02:04:11.251Z,17.04
2018-09-15T02:09:22.730Z,16.97
2018-09-15T02:11:52.869Z,17.00
2018-09-15T02:14:22.436Z,16.85
2018-09-15T02:16:52.489Z,16.86
2018-09-15T02:19:22.517Z,16.83
2018-09-15T02:21:52.279Z,16.81
2018-09-15T02:24:21.573Z,16.75
2018-09-15T02:26:51.608Z,16.68
2018-09-15T02:29:23.083Z,16.71
2018-09-15T02:31:53.184Z,16.68
2018-09-15T02:34:25.681Z,16.76
2018-09-15T02:36:56.709Z,16.66
2018-09-15T02:39:29.753Z,16.69
2018-09-15T02:41:59.518Z,16.58
2018-09-15T02:44:29.642Z,16.56
2018-09-15T02:47:00.232Z,16.61
2018-09-15T02:49:30.502Z,16.73
2018-09-15T02:52:03.013Z,16.76
2018-09-15T02:54:36.308Z,16.83
2018-09-15T02:57:06.875Z,16.84
2018-09-15T02:59:36.268Z,16.92
2018-09-15T03:02:06.657Z,16.90
2018-09-15T03:04:37.008Z,16.90
2018-09-15T03:07:06.456Z,16.90
2018-09-15T03:09:35.884Z,17.01
2018-09-15T03:12:06.141Z,17.01
2018-09-15T03:14:39.664Z,16.98
2018-09-15T03:17:09.258Z,17.01
2018-09-15T03:19:39.645Z,17.00
2018-09-15T03:22:09.873Z,17.00
2018-09-15T03:24:43.392Z,17.01
2018-09-15T03:27:15.349Z,16.98
2018-09-15T03:29:45.330Z,16.92
2018-09-15T03:32:16.272Z,16.93
2018-09-15T03:34:47.367Z,16.93
2018-09-15T03:37:18.377Z,16.92
2018-09-15T03:39:50.201Z,17.06
2018-09-15T03:42:19.746Z,17.04
2018-09-15T03:44:51.732Z,17.00
2018-09-15T03:47:22.257Z,17.00
2018-09-15T03:49:56.816Z,16.87
2018-09-15T03:52:26.970Z,16.91
2018-09-15T03:54:57.603Z,17.03
2018-09-15T03:57:28.982Z,17.04
2018-09-15T04:00:00.117Z,17.15
2018-09-15T04:02:30.607Z,17.13
2018-09-15T04:05:03.267Z,17.13
2018-09-15T04:07:32.908Z,17.19
2018-09-15T04:10:03.382Z,17.26
2018-09-15T04:12:38.217Z,17.09
2018-09-15T04:15:09.982Z,17.05
2018-09-15T04:17:44.126Z,17.13
2018-09-15T04:20:13.895Z,17.03
2018-09-15T04:22:48.271Z,17.09
2018-09-15T04:25:17.791Z,17.20
2018-09-15T04:27:48.485Z,17.15
2018-09-15T04:30:18.320Z,17.10
2018-09-15T04:32:48.611Z,17.19
2018-09-15T04:35:20.502Z,17.17
2018-09-15T04:37:50.545Z,17.13
2018-09-15T04:40:20.517Z,17.13
2018-09-15T04:42:57.113Z,16.98
2018-09-15T04:45:27.683Z,17.12
2018-09-15T04:47:58.016Z,17.10
2018-09-15T04:50:27.357Z,17.05
2018-09-15T04:53:00.897Z,17.07
2018-09-15T04:55:31.272Z,17.10
2018-09-15T04:58:02.160Z,17.03
2018-09-15T05:00:33.356Z,17.09
2018-09-15T05:03:04.693Z,16.94
2018-09-15T05:05:36.946Z,17.00
2018-09-15T05:08:07.399Z,16.97
2018-09-15T05:10:37.827Z,17.00
2018-09-15T05:13:07.645Z,16.96
2018-09-15T05:15:38.375Z,16.90
2018-09-15T05:18:08.041Z,16.91
2018-09-15T05:20:38.418Z,16.97
2018-09-15T05:23:08.057Z,16.90
2018-09-15T05:25:37.608Z,16.98
2018-09-15T05:28:07.330Z,16.89
2018-09-15T05:30:37.036Z,16.83
2018-09-15T05:33:07.437Z,16.78
2018-09-15T05:35:36.737Z,16.74
2018-09-15T05:38:06.176Z,16.63
2018-09-15T05:40:37.694Z,16.46
2018-09-15T05:43:08.053Z,16.32
2018-09-15T05:45:37.840Z,16.28
2018-09-15T05:48:07.603Z,15.64
2018-09-15T05:50:37.448Z,15.99
2018-09-15T05:53:07.904Z,16.13
2018-09-15T05:55:37.353Z,16.32
2018-09-15T05:58:06.731Z,16.45
2018-09-15T06:00:36.271Z,16.66
2018-09-15T06:03:05.682Z,16.32
2018-09-15T06:05:35.350Z,16.62
2018-09-15T06:08:05.676Z,16.79
2018-09-15T06:10:35.108Z,16.82
2018-09-15T06:13:04.822Z,16.72
2018-09-15T06:15:34.744Z,16.99
2018-09-15T06:18:05.404Z,17.30
2018-09-15T06:20:35.202Z,17.48
2018-09-15T06:23:04.654Z,17.78
2018-09-15T06:25:35.519Z,18.09
2018-09-15T06:28:04.848Z,18.40
2018-09-15T06:30:45.497Z,18.35
2018-09-15T06:33:15.324Z,18.43
2018-09-15T06:35:47.040Z,18.66
2018-09-15T06:38:18.746Z,18.88
2018-09-15T06:40:50.661Z,18.82
2018-09-15T06:43:20.481Z,19.00
2018-09-15T06:45:50.789Z,19.22
2018-09-15T06:48:20.125Z,19.11
2018-09-15T06:50:49.674Z,19.25
2018-09-15T06:53:22.433Z,19.11
2018-09-15T06:55:52.123Z,19.22
2018-09-15T07:01:04.481Z,19.77
2018-09-15T07:03:35.604Z,19.96
2018-09-15T07:06:07.665Z,19.99
2018-09-15T07:08:37.074Z,19.87
2018-09-15T07:11:07.358Z,20.16
2018-09-15T07:13:37.219Z,20.43
2018-09-15T07:16:07.014Z,20.44
2018-09-15T07:18:37.794Z,20.10
2018-09-15T07:21:08.043Z,20.14
2018-09-15T07:23:38.372Z,20.35
2018-09-15T07:26:08.578Z,20.16
2018-09-15T07:28:38.949Z,19.64
2018-09-15T07:31:09.859Z,19.42
2018-09-15T07:33:40.525Z,19.20
2018-09-15T07:36:10.752Z,19.13
2018-09-15T07:38:42.590Z,19.12
2018-09-15T07:41:14.816Z,19.28
2018-09-15T07:43:49.197Z,19.50
2018-09-15T07:46:21.320Z,19.67
2018-09-15T07:48:54.484Z,19.65
2018-09-15T07:51:33.482Z,19.76
2018-09-15T07:54:03.784Z,19.73
2018-09-15T07:56:35.527Z,19.79
2018-09-15T07:59:05.566Z,20.59
2018-09-15T08:01:36.895Z,20.19
2018-09-15T08:04:07.895Z,20.30
2018-09-15T08:06:38.944Z,20.71
2018-09-15T08:09:13.349Z,21.19
2018-09-15T08:11:43.270Z,21.26
2018-09-15T08:14:13.787Z,21.05
2018-09-15T08:16:44.441Z,21.58
2018-09-15T08:19:23.262Z,21.92
2018-09-15T08:21:54.126Z,21.61
2018-09-15T08:24:28.470Z,21.41
2018-09-15T08:26:59.466Z,21.45
2018-09-15T08:29:29.862Z,21.40
2018-09-15T08:32:04.119Z,21.13
2018-09-15T08:34:33.574Z,20.91
2018-09-15T08:37:03.916Z,21.10
2018-09-15T08:39:35.448Z,21.36
2018-09-15T08:42:06.859Z,21.52
2018-09-15T08:44:36.399Z,21.28
2018-09-15T08:47:07.719Z,21.40
2018-09-15T08:49:40.138Z,21.95
2018-09-15T08:52:10.202Z,21.95
2018-09-15T08:54:41.287Z,22.02
2018-09-15T08:57:12.598Z,22.41
2018-09-15T08:59:51.041Z,22.65
2018-09-15T09:02:21.539Z,22.43
2018-09-15T09:04:55.311Z,22.47
2018-09-15T09:07:25.852Z,22.73
2018-09-15T09:09:58.173Z,22.58
2018-09-15T09:12:27.807Z,22.80
2018-09-15T09:14:57.637Z,22.76
2018-09-15T09:17:28.683Z,22.82
2018-09-15T09:19:58.280Z,22.32
2018-09-15T09:22:28.361Z,21.85
2018-09-15T09:25:14.027Z,21.93
2018-09-15T09:27:46.214Z,22.75
2018-09-15T09:30:18.265Z,23.28
2018-09-15T09:32:48.006Z,23.36
2018-09-15T09:35:18.397Z,24.20
2018-09-15T09:37:49.005Z,24.84
2018-09-15T09:40:19.951Z,24.12
2018-09-15T09:42:57.362Z,22.96
2018-09-15T09:45:28.245Z,22.56
2018-09-15T09:47:58.925Z,21.93
2018-09-15T09:50:29.618Z,22.07
2018-09-15T09:53:00.165Z,21.50
2018-09-15T09:55:33.885Z,21.23
2018-09-15T09:58:04.729Z,21.79
2018-09-15T10:00:40.706Z,22.92
2018-09-15T10:03:13.839Z,23.67
2018-09-15T10:05:44.438Z,24.39
2018-09-15T10:08:14.433Z,25.51
2018-09-15T10:10:45.355Z,26.20
2018-09-15T10:13:15.225Z,26.20
2018-09-15T10:15:46.996Z,26.34
2018-09-15T10:18:19.942Z,26.40
2018-09-15T10:20:51.908Z,26.09
2018-09-15T10:23:22.594Z,25.79
2018-09-15T10:25:53.967Z,25.44
2018-09-15T10:28:27.245Z,24.29
2018-09-15T10:31:14.019Z,23.64
2018-09-15T10:33:52.040Z,22.93
2018-09-15T10:36:24.086Z,23.26
2018-09-15T10:39:04.393Z,24.05
2018-09-15T10:41:38.524Z,24.42
2018-09-15T10:44:09.729Z,24.82
2018-09-15T10:46:40.824Z,24.96
2018-09-15T10:49:10.675Z,25.57
2018-09-15T10:51:41.961Z,25.20
2018-09-15T10:54:11.405Z,25.75
2018-09-15T10:56:41.913Z,25.97
2018-09-15T10:59:11.695Z,26.06
2018-09-15T11:01:44.365Z,27.00
2018-09-15T11:04:18.532Z,27.31
2018-09-15T11:09:32.140Z,28.03
2018-09-15T11:12:12.000Z,28.49
2018-09-15T11:14:44.016Z,28.51
2018-09-15T11:17:19.423Z,28.64
2018-09-15T11:19:50.932Z,27.87
2018-09-15T11:22:25.321Z,27.38
2018-09-15T11:24:55.524Z,27.42
2018-09-15T11:27:30.430Z,27.14
2018-09-15T11:30:00.873Z,26.14
2018-09-15T11:32:31.429Z,25.44
2018-09-15T11:35:02.202Z,25.21
2018-09-15T11:37:34.905Z,24.74
2018-09-15T11:40:07.580Z,24.49
2018-09-15T11:42:38.650Z,25.24
2018-09-15T11:45:09.551Z,25.42
2018-09-15T11:47:44.217Z,25.36
2018-09-15T11:50:21.993Z,26.58
2018-09-15T11:52:54.248Z,26.18
2018-09-15T11:55:23.813Z,25.73
2018-09-15T11:57:54.067Z,25.37
2018-09-15T12:00:29.010Z,25.24
2018-09-15T12:03:00.585Z,25.60
2018-09-15T12:05:30.505Z,25.97
2018-09-15T12:08:00.295Z,25.79
2018-09-15T12:10:30.514Z,25.86
2018-09-15T12:13:00.437Z,26.10
2018-09-15T12:15:31.879Z,26.18
2018-09-15T12:18:08.167Z,26.17
2018-09-15T12:20:41.691Z,26.00
2018-09-15T12:23:16.417Z,25.68
2018-09-15T12:25:48.150Z,25.10
2018-09-15T12:28:23.495Z,24.98
2018-09-15T12:30:56.131Z,24.83
2018-09-15T12:33:27.337Z,24.69
2018-09-15T12:35:59.104Z,25.28
2018-09-15T12:38:28.814Z,25.27
2018-09-15T12:40:58.853Z,25.25
2018-09-15T12:43:29.447Z,25.25
2018-09-15T12:46:01.578Z,25.01
2018-09-15T12:48:33.168Z,24.86
2018-09-15T12:51:03.187Z,24.98
2018-09-15T12:53:35.355Z,24.82
2018-09-15T12:56:05.067Z,25.19
2018-09-15T12:58:36.221Z,24.64
2018-09-15T13:01:06.657Z,24.70
2018-09-15T13:03:38.320Z,24.80
2018-09-15T13:06:09.501Z,24.78
2018-09-15T13:08:41.221Z,24.64
2018-09-15T13:11:11.765Z,24.27
2018-09-15T13:13:43.354Z,24.33
2018-09-15T13:16:20.507Z,24.46
2018-09-15T13:18:52.924Z,24.33
2018-09-15T13:21:23.410Z,24.55
2018-09-15T13:23:58.949Z,24.85
2018-09-15T13:26:28.797Z,25.22
2018-09-15T13:29:01.513Z,25.36
2018-09-15T13:31:34.691Z,25.45
2018-09-15T13:34:05.566Z,24.86
2018-09-15T13:36:35.863Z,24.51
2018-09-15T13:39:07.961Z,24.39
2018-09-15T13:41:38.859Z,24.46
2018-09-15T13:44:08.556Z,24.66
2018-09-15T13:46:41.664Z,24.50
2018-09-15T13:49:12.086Z,24.99
2018-09-15T13:51:44.627Z,24.98
2018-09-15T13:54:15.473Z,24.98
2018-09-15T13:56:45.922Z,24.90
2018-09-15T13:59:15.480Z,24.84
2018-09-15T14:01:48.029Z,24.69
2018-09-15T14:04:18.313Z,24.52
2018-09-15T14:06:50.581Z,24.38
2018-09-15T14:09:21.543Z,24.26
2018-09-15T14:11:53.497Z,24.28
2018-09-15T14:14:24.389Z,24.17
2018-09-15T14:16:55.968Z,23.97
2018-09-15T14:19:27.303Z,23.90
2018-09-15T14:21:58.205Z,23.90
2018-09-15T14:24:29.013Z,23.93
2018-09-15T14:27:01.715Z,23.88
2018-09-15T14:29:35.121Z,23.89
2018-09-15T14:32:09.414Z,23.91
2018-09-15T14:34:40.294Z,23.99
2018-09-15T14:37:09.789Z,24.07
2018-09-15T14:39:43.747Z,24.17
2018-09-15T14:42:13.207Z,24.47
2018-09-15T14:44:43.184Z,24.70
2018-09-15T14:47:14.300Z,25.16
2018-09-15T14:49:45.182Z,25.04
2018-09-15T14:52:16.332Z,25.27
2018-09-15T14:54:48.121Z,25.41
2018-09-15T14:57:23.452Z,25.43
2018-09-15T14:59:54.985Z,25.38
2018-09-15T15:02:27.649Z,24.97
2018-09-15T15:04:59.481Z,24.46
2018-09-15T15:07:35.239Z,24.05
2018-09-15T15:10:08.063Z,24.03
2018-09-15T15:12:38.729Z,23.97
2018-09-15T15:15:08.995Z,23.74
2018-09-15T15:17:44.701Z,23.63
2018-09-15T15:20:17.342Z,23.70
2018-09-15T15:22:48.098Z,23.93
2018-09-15T15:25:20.462Z,24.06
2018-09-15T15:27:50.333Z,24.25
2018-09-15T15:30:21.827Z,24.28
2018-09-15T15:32:51.383Z,24.19
2018-09-15T15:35:22.502Z,24.27
2018-09-15T15:38:07.733Z,24.38
2018-09-15T15:40:45.791Z,24.25
2018-09-15T15:43:16.424Z,24.43
2018-09-15T15:45:59.453Z,24.37
2018-09-15T15:48:32.027Z,24.19
2018-09-15T15:51:10.672Z,24.10
2018-09-15T15:53:42.211Z,24.08
2018-09-15T15:56:13.898Z,24.21
2018-09-15T15:58:45.017Z,24.29
2018-09-15T16:01:19.682Z,24.23
2018-09-15T16:03:55.075Z,24.30
2018-09-15T16:06:26.224Z,24.24
2018-09-15T16:08:55.706Z,24.01
2018-09-15T16:11:26.813Z,24.02
2018-09-15T16:14:02.057Z,23.72
2018-09-15T16:16:32.138Z,23.59
2018-09-15T16:19:11.238Z,23.47
2018-09-15T16:21:45.066Z,23.52
2018-09-15T16:24:17.257Z,23.54
2018-09-15T16:26:53.862Z,23.64
2018-09-15T16:32:03.561Z,23.81
2018-09-15T16:34:39.708Z,23.66
2018-09-15T16:40:17.696Z,23.44
2018-09-15T16:42:51.773Z,23.41
2018-09-15T16:45:23.641Z,23.41
2018-09-15T16:47:57.398Z,23.32
2018-09-15T16:50:28.265Z,23.13
2018-09-15T16:53:02.400Z,23.05
2018-09-15T16:55:34.766Z,22.93
2018-09-15T16:58:12.341Z,22.83
2018-09-15T17:00:42.382Z,22.93
2018-09-15T17:03:12.163Z,23.03
2018-09-15T17:05:48.111Z,23.01
2018-09-15T17:08:18.657Z,23.00
2018-09-15T17:10:59.093Z,23.00
2018-09-15T17:13:29.508Z,22.78
2018-09-15T17:16:01.606Z,22.65
2018-09-15T17:18:35.576Z,22.66
2018-09-15T17:21:10.787Z,22.71
2018-09-15T17:23:43.594Z,22.76
2018-09-15T17:26:14.166Z,22.77
2018-09-15T17:28:53.515Z,22.70
2018-09-15T17:31:24.311Z,22.63
2018-09-15T17:33:59.351Z,22.58
2018-09-15T17:36:36.112Z,22.56
2018-09-15T17:39:08.937Z,22.52
2018-09-15T17:44:29.178Z,22.49
2018-09-15T17:46:59.228Z,22.50
2018-09-15T17:49:33.824Z,22.50
2018-09-15T17:52:10.553Z,22.48
2018-09-15T17:54:44.258Z,22.47
2018-09-15T17:57:18.957Z,22.43
2018-09-15T17:59:59.964Z,22.36
2018-09-15T18:02:32.106Z,22.31
2018-09-15T18:05:14.039Z,22.26
2018-09-15T18:07:52.523Z,22.20
2018-09-15T18:10:26.185Z,22.17
2018-09-15T18:13:25.870Z,22.22
2018-09-15T18:16:00.738Z,22.22
2018-09-15T18:18:38.075Z,22.20
2018-09-15T18:21:11.803Z,22.17
2018-09-15T18:23:43.567Z,22.16
2018-09-15T18:26:13.153Z,22.10
2018-09-15T18:28:44.748Z,21.87
2018-09-15T18:31:14.341Z,21.60
2018-09-15T18:33:45.918Z,21.50
2018-09-15T18:36:16.809Z,21.39
2018-09-15T18:38:51.210Z,21.31
2018-09-15T18:41:25.219Z,21.09
2018-09-15T18:43:56.543Z,20.91
2018-09-15T18:46:28.579Z,20.84
2018-09-15T18:52:03.055Z,20.61
2018-09-15T18:54:36.406Z,20.63
2018-09-15T18:57:07.871Z,20.64
2018-09-15T18:59:47.239Z,20.64
2018-09-15T19:02:19.946Z,20.60
2018-09-15T19:04:50.650Z,20.56
2018-09-15T19:07:21.111Z,20.46
2018-09-15T19:09:51.609Z,20.44
2018-09-15T19:12:31.625Z,20.37
2018-09-15T19:15:15.836Z,20.23
2018-09-15T19:17:47.928Z,20.18
2018-09-15T19:20:19.323Z,20.06
2018-09-15T19:22:49.435Z,20.06
2018-09-15T19:25:21.277Z,19.80
2018-09-15T19:27:54.932Z,19.73
2018-09-15T19:30:31.276Z,19.71
2018-09-15T19:33:11.670Z,19.63
2018-09-15T19:38:21.867Z,19.61
2018-09-15T19:40:51.533Z,19.65
2018-09-15T19:49:27.082Z,19.37
2018-09-15T19:51:58.125Z,19.48
2018-09-15T19:54:30.032Z,19.39
2018-09-15T19:57:08.417Z,19.53
2018-09-15T19:59:39.815Z,19.34
2018-09-15T20:02:16.836Z,19.30
2018-09-15T20:04:49.674Z,19.33
2018-09-15T20:07:20.541Z,19.33
2018-09-15T20:09:53.273Z,19.23
2018-09-15T20:12:24.363Z,19.26
2018-09-15T20:14:57.300Z,19.29
2018-09-15T20:17:31.480Z,19.30
2018-09-15T20:20:00.335Z,19.15
2018-09-15T20:22:33.679Z,19.08
2018-09-15T20:25:08.376Z,19.08
2018-09-15T20:27:40.101Z,19.05
2018-09-15T20:32:49.761Z,18.87
2018-09-15T20:35:19.868Z,18.80
2018-09-15T20:37:50.285Z,18.82
2018-09-15T20:40:22.697Z,18.80
2018-09-15T20:42:54.320Z,18.86
2018-09-15T20:45:24.695Z,18.74
2018-09-15T20:47:57.948Z,18.65
2018-09-15T20:50:27.590Z,18.57
2018-09-15T20:52:57.768Z,18.48
2018-09-15T20:55:31.570Z,18.54
2018-09-15T20:58:05.890Z,18.51
2018-09-15T21:00:40.639Z,18.49
2018-09-15T21:03:11.187Z,18.46
2018-09-15T21:05:42.325Z,18.41
2018-09-15T21:08:18.563Z,18.32
2018-09-15T21:10:49.660Z,18.31
2018-09-15T21:13:20.639Z,18.28
2018-09-15T21:16:04.243Z,18.19
2018-09-15T21:18:35.743Z,17.89
2018-09-15T21:21:11.929Z,18.11
2018-09-15T21:23:45.942Z,17.97
2018-09-15T21:26:17.315Z,18.00
2018-09-15T21:28:48.270Z,17.90
2018-09-15T21:31:21.783Z,17.93
2018-09-15T21:33:51.298Z,17.94
2018-09-15T21:36:20.904Z,17.96
2018-09-15T21:38:50.380Z,18.03
2018-09-15T21:41:20.573Z,18.09
2018-09-15T21:43:51.128Z,18.00
2018-09-15T21:46:22.453Z,17.99
2018-09-15T21:48:53.001Z,18.03
2018-09-15T21:51:25.517Z,18.06
2018-09-15T21:53:55.000Z,18.03
2018-09-15T21:56:24.634Z,18.02
2018-09-15T21:58:56.124Z,18.05
2018-09-15T22:01:25.845Z,17.81
2018-09-15T22:04:01.710Z,17.82
2018-09-15T22:06:34.611Z,17.88
2018-09-15T22:09:06.270Z,17.78
2018-09-15T22:11:36.018Z,17.72
2018-09-15T22:14:06.697Z,17.77
2018-09-15T22:16:37.257Z,17.68
2018-09-15T22:19:07.587Z,17.64
2018-09-15T22:21:38.477Z,17.58
2018-09-15T22:24:11.703Z,17.46
2018-09-15T22:26:47.470Z,17.37
2018-09-15T22:29:20.666Z,17.41
2018-09-15T22:31:52.803Z,17.46
2018-09-15T22:34:27.537Z,17.42
2018-09-15T22:36:58.164Z,17.34
2018-09-15T22:39:33.625Z,17.24
2018-09-15T22:42:03.623Z,17.26
2018-09-15T22:44:33.370Z,17.25
2018-09-15T22:47:03.584Z,17.27
2018-09-15T22:49:36.651Z,17.09
2018-09-15T22:52:06.128Z,17.14
2018-09-15T22:54:40.397Z,17.15
2018-09-15T22:57:11.939Z,17.22
2018-09-15T22:59:51.312Z,17.16
2018-09-15T23:02:22.863Z,17.09
2018-09-15T23:04:55.688Z,16.94
2018-09-15T23:07:28.870Z,16.84
2018-09-15T23:09:58.895Z,16.78
2018-09-15T23:12:30.595Z,16.86
2018-09-15T23:15:04.623Z,16.89
2018-09-15T23:17:35.960Z,16.92
2018-09-15T23:20:06.777Z,16.92
2018-09-15T23:22:38.647Z,16.89
2018-09-15T23:25:08.438Z,16.88
2018-09-15T23:27:37.964Z,16.78
2018-09-15T23:30:08.446Z,16.82
2018-09-15T23:32:41.425Z,16.72
2018-09-15T23:35:12.606Z,16.43
2018-09-15T23:37:42.140Z,16.74
2018-09-15T23:40:15.090Z,16.73
2018-09-15T23:42:46.308Z,16.82
2018-09-15T23:45:18.579Z,16.80
2018-09-15T23:47:49.278Z,16.82
2018-09-15T23:50:19.669Z,16.77
2018-09-15T23:52:50.002Z,16.81
2018-09-15T23:55:25.262Z,16.81
2018-09-15T23:57:55.424Z,16.84
